Time;durP1;ratioP1;P1;durP2;ratioP2;P2;SDS_P1;SDS_P2;PMS_P1;PMS_P2;Temp;Humidity;BMP_temperature;BMP_pressure;BME280_temperature;BME280_humidity;BME280_pressure;Samples;Min_cycle;Max_cycle;Signal;HPM_P1;HPM_P2
2022/08/17 00:00:50;;;;;;;4.83;4.00;;;24.40;56.90;;;-142.21;66.12;112049.66;5049543;28;20280;-74
2022/08/17 00:03:20;;;;;;;4.87;4.10;;;24.30;56.70;;;-142.21;65.90;112049.66;5051551;28;20200;-74
2022/08/17 00:05:53;;;;;;;4.80;4.40;;;24.30;56.50;;;-142.21;65.61;112049.66;5051813;28;20274;-73
2022/08/17 00:08:25;;;;;;;4.93;4.43;;;24.30;57.20;;;-142.21;65.10;112049.66;5051356;28;20228;-74
2022/08/17 00:10:54;;;;;;;5.03;4.53;;;24.30;56.50;;;-142.21;65.21;112049.66;5052020;28;20277;-73
2022/08/17 00:13:26;;;;;;;5.83;4.47;;;24.20;56.40;;;-142.21;65.24;112049.66;5051527;28;20258;-73
2022/08/17 00:15:58;;;;;;;4.67;4.27;;;24.20;56.40;;;-142.21;65.80;112049.66;5051735;28;20228;-74
2022/08/17 00:18:25;;;;;;;5.17;4.67;;;24.20;56.80;;;-142.21;65.48;112049.66;5050506;28;20255;-73
2022/08/17 00:20:56;;;;;;;5.77;4.80;;;24.20;56.70;;;-142.21;65.66;112049.66;5050873;28;20213;-74
2022/08/17 00:23:25;;;;;;;5.00;4.57;;;24.10;56.50;;;-142.21;65.37;112049.66;5051209;28;20308;-74
2022/08/17 00:25:53;;;;;;;5.57;5.00;;;24.10;56.60;;;-142.21;65.24;112049.66;5051065;28;20257;-74
2022/08/17 00:28:21;;;;;;;4.97;4.47;;;24.10;56.70;;;-142.21;65.07;112049.66;5050947;28;20212;-74
2022/08/17 00:30:52;;;;;;;5.23;4.73;;;24.00;56.60;;;-142.21;65.03;112049.66;5052862;28;20328;-73
2022/08/17 00:33:23;;;;;;;6.53;5.13;;;24.00;56.60;;;-142.21;65.00;112049.66;5050259;28;20824;-73
2022/08/17 00:35:51;;;;;;;6.13;4.50;;;24.00;56.60;;;-142.21;65.09;112049.66;5051343;28;20594;-73
2022/08/17 00:38:20;;;;;;;4.90;4.43;;;24.00;56.60;;;-142.21;65.20;112049.66;5051340;28;20285;-73
2022/08/17 00:40:51;;;;;;;5.73;4.70;;;24.00;56.60;;;-142.21;65.32;112049.66;5051897;28;20198;-73
2022/08/17 00:43:22;;;;;;;5.00;4.53;;;24.00;56.60;;;-142.21;65.44;112049.66;5050314;28;20203;-72
2022/08/17 00:45:50;;;;;;;4.87;4.40;;;24.00;56.60;;;-142.21;66.00;112049.66;5051283;28;20206;-73
2022/08/17 00:48:18;;;;;;;6.30;4.73;;;24.00;56.70;;;-142.21;66.40;112049.66;5051199;28;20315;-73
2022/08/17 00:51:00;;;;;;;5.00;4.60;;;24.00;57.00;;;-142.21;66.70;112049.66;5051787;28;20273;-74
2022/08/17 00:53:33;;;;;;;6.60;5.20;;;24.00;57.00;;;-142.21;67.00;112049.66;5052707;28;20196;-73
2022/08/17 00:56:07;;;;;;;4.90;4.50;;;23.90;57.00;;;-142.21;66.88;112049.66;5054730;28;20236;-73
2022/08/17 00:58:37;;;;;;;5.47;4.97;;;23.90;57.00;;;-142.21;66.25;112049.66;5055399;28;20277;-74
2022/08/17 01:01:08;;;;;;;5.33;4.47;;;23.80;56.80;;;-142.21;66.35;112049.66;5054611;28;20207;-74
2022/08/17 01:03:38;;;;;;;4.83;4.33;;;23.80;57.00;;;-142.21;66.58;112049.66;5054908;28;20285;-74
2022/08/17 01:06:08;;;;;;;5.37;4.87;;;23.80;57.00;;;-142.21;66.88;112049.66;5054396;28;20220;-74
2022/08/17 01:08:39;;;;;;;4.80;4.40;;;23.80;57.10;;;-142.21;67.28;112049.66;5053951;28;20291;-74
2022/08/17 01:11:08;;;;;;;4.80;4.40;;;23.80;57.20;;;-142.21;67.46;112049.66;5052237;28;20243;-74
2022/08/17 01:13:39;;;;;;;5.30;4.80;;;23.80;57.30;;;-142.21;67.75;112049.66;5055046;28;20231;-73
2022/08/17 01:16:18;;;;;;;5.17;4.63;;;23.80;58.00;;;-142.21;68.34;112049.66;5053880;28;20246;-73
2022/08/17 01:18:50;;;;;;;4.83;4.33;;;23.70;57.50;;;-142.21;68.36;112049.66;5054892;28;20194;-73
2022/08/17 01:21:33;;;;;;;5.07;4.53;;;23.70;57.50;;;-142.21;68.30;112049.66;5054034;28;20192;-73
2022/08/17 01:24:03;;;;;;;7.77;4.73;;;23.60;57.60;;;-142.21;68.39;112049.66;5054515;28;20221;-73
2022/08/17 01:26:33;;;;;;;6.00;5.23;;;23.60;57.60;;;-142.21;68.69;112049.66;5053498;28;20324;-73
2022/08/17 01:29:02;;;;;;;5.07;4.57;;;23.50;57.60;;;-142.21;68.83;112049.66;5053027;28;20197;-73
2022/08/17 01:31:35;;;;;;;5.43;4.80;;;23.50;57.70;;;-142.21;69.03;112049.66;5043977;28;20292;-73
2022/08/17 01:34:08;;;;;;;6.50;5.03;;;23.50;57.80;;;-142.21;69.21;112049.66;5054745;28;20667;-73
2022/08/17 01:36:36;;;;;;;5.17;4.67;;;23.50;57.80;;;-142.21;68.86;112049.66;5054582;28;20194;-72
2022/08/17 01:39:09;;;;;;;5.00;4.60;;;23.50;57.80;;;-142.21;69.18;112049.66;5054096;28;20235;-73
2022/08/17 01:41:41;;;;;;;5.63;4.93;;;23.40;57.90;;;-142.21;69.85;112049.66;5053597;28;20701;-73
2022/08/17 01:44:08;;;;;;;6.40;5.10;;;23.40;58.10;;;-142.21;69.67;112049.66;5053870;28;20218;-73
2022/08/17 01:46:37;;;;;;;5.80;5.20;;;23.40;58.00;;;-142.21;69.69;112049.66;5053950;28;20225;-73
2022/08/17 01:49:07;;;;;;;5.70;5.20;;;23.40;58.10;;;-142.21;69.64;112049.66;5051933;28;20291;-73
2022/08/17 01:51:35;;;;;;;5.93;4.80;;;23.40;58.10;;;-142.21;69.46;112049.66;5054116;28;20644;-74
2022/08/17 01:54:08;;;;;;;6.37;5.57;;;23.40;58.00;;;-142.21;69.95;112049.66;5054033;28;20235;-73
2022/08/17 01:56:40;;;;;;;5.67;5.17;;;23.30;58.10;;;-142.21;70.03;112049.66;5039128;28;20276;-72
2022/08/17 01:59:07;;;;;;;5.80;5.03;;;23.30;58.30;;;-142.21;70.40;112049.66;5053473;28;20190;-72
2022/08/17 02:01:36;;;;;;;5.30;4.80;;;23.30;58.20;;;-142.21;70.66;112049.66;5054232;28;20221;-72
2022/08/17 02:04:07;;;;;;;5.93;4.90;;;23.30;58.40;;;-142.21;71.06;112049.66;5053529;28;20324;-73
2022/08/17 02:06:40;;;;;;;5.63;5.10;;;23.30;58.40;;;-142.21;71.95;112049.66;5052307;28;20222;-72
2022/08/17 02:09:09;;;;;;;6.50;5.20;;;23.30;58.80;;;-142.21;72.36;112049.66;5039814;28;20191;-73
2022/08/17 02:11:38;;;;;;;5.70;5.20;;;23.30;58.90;;;-142.21;72.68;112049.66;5054146;28;20296;-73
2022/08/17 02:14:10;;;;;;;5.90;5.30;;;23.20;59.00;;;-142.21;72.97;112049.66;5053457;28;20290;-73
2022/08/17 02:16:40;;;;;;;7.13;5.50;;;23.20;59.10;;;-142.21;72.98;112049.66;5053896;28;20305;-72
2022/08/17 02:19:15;;;;;;;5.70;5.13;;;23.20;59.10;;;-142.21;73.41;112049.66;5057020;28;20762;-73
2022/08/17 02:21:46;;;;;;;5.50;5.00;;;23.10;59.20;;;-142.21;73.35;112049.66;5061440;28;20187;-73
2022/08/17 02:24:21;;;;;;;5.20;4.80;;;23.10;59.20;;;-142.21;73.58;112049.66;5057068;28;20291;-73
2022/08/17 02:26:48;;;;;;;5.70;5.10;;;23.10;59.20;;;-142.21;73.44;112049.66;5053648;28;20229;-73
2022/08/17 02:29:15;;;;;;;6.97;5.23;;;23.10;59.20;;;-142.21;72.70;112049.66;5053049;28;20597;-73
2022/08/17 02:31:44;;;;;;;5.33;4.87;;;23.10;59.10;;;-142.21;73.15;112049.66;5052119;28;20275;-73
2022/08/17 02:34:11;;;;;;;5.87;5.33;;;23.00;59.20;;;-142.21;73.60;112049.66;5052558;28;20654;-74
2022/08/17 02:36:38;;;;;;;5.30;4.80;;;23.00;59.30;;;-142.21;74.58;112049.66;5053573;28;20574;-74
2022/08/17 02:39:16;;;;;;;7.77;5.20;;;23.00;59.60;;;-142.21;75.12;112049.66;5053102;28;20285;-74
2022/08/17 02:41:43;;;;;;;7.53;5.30;;;23.00;60.00;;;-142.21;75.08;112049.66;5053169;28;20277;-74
2022/08/17 02:44:11;;;;;;;5.70;5.17;;;22.90;59.80;;;-142.21;75.55;112049.66;5052084;28;20294;-74
2022/08/17 02:46:39;;;;;;;5.70;5.10;;;22.90;59.80;;;-142.21;75.76;112049.66;5052966;28;20249;-74
2022/08/17 02:49:06;;;;;;;5.87;5.00;;;22.90;60.00;;;-142.21;75.67;112049.66;5053054;28;20244;-74
2022/08/17 02:51:34;;;;;;;5.80;5.20;;;22.90;60.10;;;-142.21;75.48;112049.66;5052261;28;20367;-73
2022/08/17 02:54:01;;;;;;;5.30;4.80;;;22.90;60.20;;;-142.21;75.77;112049.66;5051929;28;20232;-74
2022/08/17 02:56:29;;;;;;;5.33;4.83;;;22.90;60.40;;;-142.21;76.50;112049.66;5052676;28;20281;-73
2022/08/17 02:58:57;;;;;;;10.13;4.43;;;22.90;60.60;;;-142.21;76.67;112049.66;5052811;28;20251;-73
2022/08/17 03:01:24;;;;;;;5.50;5.00;;;22.90;60.70;;;-142.21;76.77;112049.66;5052093;28;20303;-73
2022/08/17 03:03:51;;;;;;;5.53;4.87;;;22.80;60.50;;;-142.21;76.61;112049.66;5048397;28;20322;-72
2022/08/17 03:06:19;;;;;;;5.33;4.83;;;22.80;60.60;;;-142.21;76.33;112049.66;5051078;28;20208;-73
2022/08/17 03:08:46;;;;;;;4.93;4.53;;;22.80;60.50;;;-142.21;76.52;112049.66;5052357;28;20204;-73
2022/08/17 03:11:15;;;;;;;6.60;5.17;;;22.80;60.60;;;-142.21;76.63;112049.66;5051797;28;20289;-73
2022/08/17 03:13:43;;;;;;;5.20;4.70;;;22.80;60.70;;;-142.21;76.38;112049.66;5052537;28;20204;-73
2022/08/17 03:16:10;;;;;;;5.20;4.67;;;22.70;60.70;;;-142.21;76.98;112049.66;5051953;28;20202;-71
2022/08/17 03:18:39;;;;;;;8.37;5.73;;;22.70;60.70;;;-142.21;77.91;112049.66;5052042;28;20611;-71
2022/08/17 03:21:08;;;;;;;5.80;5.30;;;22.60;60.70;;;-142.21;78.29;112049.66;5052283;28;20301;-72
2022/08/17 03:23:39;;;;;;;5.60;5.10;;;22.50;61.20;;;-142.21;78.03;112049.66;5044729;28;20222;-73
2022/08/17 03:26:09;;;;;;;5.27;4.53;;;22.40;61.20;;;-142.21;77.61;112049.66;5052350;28;20201;-73
2022/08/17 03:28:37;;;;;;;6.20;5.60;;;22.40;61.40;;;-142.21;77.73;112049.66;5052501;28;20236;-73
2022/08/17 03:31:06;;;;;;;5.33;4.83;;;22.40;61.20;;;-142.21;77.42;112049.66;5054279;28;20300;-73
2022/08/17 03:33:41;;;;;;;5.67;5.13;;;22.40;61.70;;;-142.21;77.72;112049.66;5071252;28;20299;-73
2022/08/17 03:36:09;;;;;;;9.33;5.80;;;22.30;62.30;;;-142.21;77.73;112049.66;5060867;28;20657;-73
2022/08/17 03:38:36;;;;;;;6.07;5.47;;;22.30;62.40;;;-142.21;77.25;112049.66;5051890;28;20269;-72
2022/08/17 03:41:05;;;;;;;5.90;5.13;;;22.30;62.20;;;-142.21;76.80;112049.66;5050671;28;20305;-72
2022/08/17 03:43:34;;;;;;;5.40;4.93;;;22.40;62.00;;;-142.21;76.07;112049.66;5051140;28;20281;-74
2022/08/17 03:57:11;;;;;;;8.07;5.17;;;22.70;62.50;;;-142.21;75.57;112049.66;5052068;28;20239;-73
2022/08/17 03:59:39;;;;;;;8.90;5.83;;;22.80;62.40;;;-142.21;75.63;112049.66;5052513;28;20210;-72
2022/08/17 04:02:11;;;;;;;5.80;4.97;;;22.90;62.30;;;-142.21;75.96;112049.66;5051564;28;20213;-72
2022/08/17 04:04:40;;;;;;;6.10;5.50;;;23.00;62.20;;;-142.21;76.00;112049.66;5051800;28;20229;-73
2022/08/17 04:07:08;;;;;;;6.27;5.67;;;23.10;62.20;;;-142.21;75.85;112049.66;5051709;28;20316;-73
2022/08/17 04:09:37;;;;;;;5.90;5.30;;;23.10;62.00;;;-142.21;76.09;112049.66;5049935;28;20194;-74
2022/08/17 04:12:05;;;;;;;7.27;5.97;;;23.10;61.90;;;-142.21;76.66;112049.66;5051960;28;20202;-73
2022/08/17 04:14:35;;;;;;;6.00;5.37;;;23.10;62.20;;;-142.21;76.31;112049.66;5051656;28;20290;-73
2022/08/17 04:17:02;;;;;;;6.40;5.80;;;23.10;62.20;;;-142.21;76.63;112049.66;5052133;28;20248;-73
2022/08/17 04:19:29;;;;;;;6.17;5.60;;;23.20;62.20;;;-142.21;76.88;112049.66;5050397;28;20727;-73
2022/08/17 04:21:58;;;;;;;6.30;5.70;;;23.10;62.20;;;-142.21;77.08;112049.66;5052276;28;20208;-73
2022/08/17 04:24:26;;;;;;;6.00;5.50;;;23.20;63.10;;;-142.21;76.75;112049.66;5051277;28;20317;-73
2022/08/17 04:26:53;;;;;;;6.13;5.53;;;23.30;62.10;;;-142.21;77.51;112049.66;5051664;28;20229;-73
2022/08/17 04:29:21;;;;;;;7.03;5.70;;;23.30;62.30;;;-142.21;77.66;112049.66;5052827;28;20221;-73
2022/08/17 04:31:48;;;;;;;6.50;5.90;;;23.20;62.40;;;-142.21;77.47;112049.66;5055761;28;20294;-74
2022/08/17 04:34:16;;;;;;;6.87;5.93;;;23.30;62.40;;;-142.21;77.30;112049.66;5055042;28;20302;-73
2022/08/17 04:36:43;;;;;;;7.40;6.20;;;23.30;62.40;;;-142.21;77.21;112049.66;5055451;28;20199;-72
2022/08/17 04:39:12;;;;;;;6.73;6.07;;;23.30;62.30;;;-142.21;77.28;112049.66;5055071;28;20202;-72
2022/08/17 04:44:24;;;;;;;8.60;5.17;;;23.40;62.20;;;-142.21;77.02;112049.66;5054645;28;20201;-74
2022/08/17 04:46:51;;;;;;;6.50;5.90;;;23.50;62.00;;;-142.21;76.94;112049.66;5055387;28;20230;-73
2022/08/17 04:49:19;;;;;;;7.43;6.23;;;23.50;61.90;;;-142.21;76.90;112049.66;5052481;28;20240;-74
2022/08/17 04:51:48;;;;;;;6.70;6.10;;;23.60;61.90;;;-142.21;76.59;112049.66;5054961;28;20209;-73
2022/08/17 04:54:20;;;;;;;6.20;5.60;;;23.50;62.80;;;-142.21;77.02;112049.66;5054147;28;20232;-71
2022/08/17 04:56:47;;;;;;;7.27;5.87;;;23.50;62.30;;;-142.21;76.98;112049.66;5055604;28;20285;-73
2022/08/17 04:59:17;;;;;;;6.33;5.77;;;23.50;62.30;;;-142.21;77.33;112049.66;5054211;28;20298;-73
2022/08/17 05:01:47;;;;;;;6.03;5.43;;;23.50;62.40;;;-142.21;77.75;112049.66;5054546;28;20264;-73
2022/08/17 05:04:19;;;;;;;8.73;6.63;;;23.50;62.60;;;-142.21;77.98;112049.66;5054202;28;20328;-73
2022/08/17 05:06:48;;;;;;;6.23;5.63;;;23.50;62.40;;;-142.21;78.00;112049.66;5053357;28;20221;-72
2022/08/17 05:09:17;;;;;;;6.23;5.67;;;23.50;62.30;;;-142.21;77.48;112049.66;5054451;28;20597;-72
2022/08/17 05:11:45;;;;;;;6.40;5.80;;;23.60;62.40;;;-142.21;77.50;112049.66;5054821;28;20233;-73
2022/08/17 05:14:13;;;;;;;6.07;5.57;;;23.60;61.90;;;-142.21;76.87;112049.66;5054946;28;20222;-73
2022/08/17 05:16:42;;;;;;;6.57;5.97;;;23.70;61.80;;;-142.21;77.23;112049.66;5055108;28;20201;-72
2022/08/17 05:19:09;;;;;;;6.30;5.70;;;23.80;61.80;;;-142.21;77.49;112049.66;5055131;28;20241;-72
2022/08/17 05:21:36;;;;;;;6.77;6.00;;;23.80;61.90;;;-142.21;76.43;112049.66;5054484;28;20209;-72
2022/08/17 05:24:04;;;;;;;9.13;6.00;;;23.90;61.50;;;-142.21;77.23;112049.66;5054964;28;20211;-74
2022/08/17 05:26:33;;;;;;;7.43;5.40;;;24.00;61.70;;;-142.21;77.65;112049.66;5053293;28;20272;-75
2022/08/17 05:29:01;;;;;;;6.13;5.53;;;24.00;61.80;;;-142.21;78.36;112049.66;5054895;28;20229;-75
2022/08/17 05:31:30;;;;;;;6.50;5.47;;;24.10;62.00;;;-142.21;78.41;112049.66;5054036;28;20646;-77
2022/08/17 05:33:58;;;;;;;7.23;5.73;;;24.20;62.20;;;-142.21;79.05;112049.66;5054763;28;20201;-76
2022/08/17 05:36:25;;;;;;;6.77;5.70;;;24.20;62.50;;;-142.21;78.48;112049.66;5053936;28;20201;-75
2022/08/17 05:38:52;;;;;;;7.60;5.90;;;24.20;62.10;;;-142.21;76.54;112049.66;5053467;28;20748;-76
2022/08/17 05:41:25;;;;;;;6.97;5.93;;;24.30;61.50;;;-142.21;76.09;112049.66;5053530;28;20210;-74
2022/08/17 05:43:54;;;;;;;6.97;5.30;;;24.30;61.30;;;-142.21;76.19;112049.66;5052095;28;20197;-74
2022/08/17 05:46:28;;;;;;;7.23;6.23;;;24.30;61.10;;;-142.21;75.57;112049.66;5053721;28;20251;-74
2022/08/17 05:49:03;;;;;;;7.13;5.63;;;24.30;61.20;;;-142.21;75.50;112049.66;5052085;28;20662;-76
2022/08/17 05:52:03;;;;;;;5.73;5.23;;;24.30;61.20;;;-142.21;76.45;112049.66;5048059;28;20219;-75
2022/08/17 05:54:50;;;;;;;5.90;5.30;;;24.40;61.40;;;-142.21;76.07;112049.66;5043414;28;20252;-76
2022/08/17 05:57:47;;;;;;;6.80;6.20;;;24.50;61.50;;;-142.21;74.99;112049.66;5048741;28;20202;-74
2022/08/17 06:00:22;;;;;;;5.87;5.37;;;24.50;61.30;;;-142.21;75.01;112049.66;5048579;28;20658;-75
2022/08/17 06:03:10;;;;;;;8.80;5.80;;;24.50;61.60;;;-142.21;74.73;112049.66;5053482;28;20252;-76
2022/08/17 06:06:00;;;;;;;6.10;5.60;;;24.70;60.90;;;-142.21;74.07;112049.66;5052003;28;20237;-73
2022/08/17 06:08:44;;;;;;;7.03;6.10;;;24.70;60.60;;;-142.21;73.38;112049.66;5052866;28;20285;-72
2022/08/17 06:11:27;;;;;;;6.40;5.73;;;24.80;60.30;;;-142.21;73.22;112049.66;5052684;28;20248;-73
2022/08/17 06:14:29;;;;;;;7.23;5.60;;;24.90;60.40;;;-142.21;72.58;112049.66;5041968;28;20228;-73
2022/08/17 06:17:04;;;;;;;6.43;5.83;;;25.00;60.00;;;-142.21;70.97;112049.66;5044402;28;20280;-72
2022/08/17 06:19:40;;;;;;;5.97;5.43;;;25.10;59.30;;;-142.21;71.42;112049.66;5053177;28;20198;-73
2022/08/17 06:22:12;;;;;;;6.33;5.73;;;25.10;59.40;;;-142.21;71.34;112049.66;5045075;28;20225;-73
2022/08/17 06:24:48;;;;;;;5.63;5.13;;;25.10;59.40;;;-142.21;70.85;112049.66;5039279;28;20717;-73
2022/08/17 06:27:29;;;;;;;6.30;5.27;;;25.20;59.80;;;-142.21;70.63;112049.66;5057335;28;20206;-73
2022/08/17 06:30:04;;;;;;;7.60;5.57;;;25.20;59.10;;;-142.21;70.46;112049.66;5051260;28;20255;-72
2022/08/17 06:32:32;;;;;;;6.83;5.97;;;25.30;59.10;;;-142.21;69.04;112049.66;5052501;28;20220;-73
2022/08/17 06:35:03;;;;;;;6.97;5.50;;;25.30;58.60;;;-142.21;69.30;112049.66;5052701;28;20233;-72
2022/08/17 06:37:56;;;;;;;6.80;6.20;;;25.40;58.70;;;-142.21;69.19;112049.66;5052981;28;20186;-73
2022/08/17 06:40:54;;;;;;;6.00;5.40;;;25.50;58.50;;;-142.21;69.21;112049.66;5052625;28;20209;-72
2022/08/17 06:43:50;;;;;;;5.80;5.30;;;25.50;58.70;;;-142.21;69.83;112049.66;5033966;28;20207;-74
2022/08/17 06:46:24;;;;;;;8.27;6.20;;;25.50;58.80;;;-142.21;69.10;112049.66;5050631;28;20209;-73
2022/08/17 06:49:20;;;;;;;5.90;5.33;;;25.50;58.60;;;-142.21;69.25;112049.66;5053101;28;20211;-74
2022/08/17 06:51:54;;;;;;;7.30;5.77;;;25.50;58.80;;;-142.21;71.27;112049.66;5046641;28;20193;-72
2022/08/17 06:54:37;;;;;;;6.13;5.53;;;25.40;59.30;;;-142.21;72.14;112049.66;5052336;28;20190;-72
2022/08/17 06:57:16;;;;;;;6.00;5.40;;;25.50;59.60;;;-142.21;74.47;112049.66;5053448;28;20572;-73
2022/08/17 06:59:49;;;;;;;6.97;5.63;;;25.60;60.10;;;-142.21;76.21;112049.66;5052263;28;20186;-72
2022/08/17 07:02:37;;;;;;;6.47;5.97;;;25.60;60.70;;;-142.21;76.60;112049.66;5050112;28;20248;-73
2022/08/17 07:05:08;;;;;;;7.20;6.50;;;25.60;61.00;;;-142.21;77.97;112049.66;5050182;28;20287;-73
2022/08/17 07:10:27;;;;;;;6.37;5.77;;;25.60;61.50;;;-142.21;79.10;112049.66;5051857;28;20197;-72
2022/08/17 07:13:03;;;;;;;8.23;5.93;;;25.60;61.60;;;-142.21;77.42;112049.66;5052177;28;20229;-72
2022/08/17 07:15:42;;;;;;;6.40;5.80;;;25.60;61.30;;;-142.21;77.97;112049.66;5052130;28;20232;-71
2022/08/17 07:18:10;;;;;;;6.17;5.10;;;25.70;61.70;;;-142.21;80.16;112049.66;5051891;28;20294;-73
2022/08/17 07:20:48;;;;;;;7.47;6.37;;;25.70;62.30;;;-142.21;80.71;112049.66;5052246;28;20282;-73
2022/08/17 07:23:25;;;;;;;7.07;6.13;;;25.70;62.60;;;-142.21;79.69;112049.66;5051138;28;20189;-72
2022/08/17 07:25:53;;;;;;;6.50;5.80;;;25.70;62.60;;;-142.21;79.55;112049.66;5053077;28;20233;-72
2022/08/17 07:28:23;;;;;;;6.50;5.87;;;25.80;61.90;;;-142.21;79.32;112049.66;5052324;28;20230;-72
2022/08/17 07:30:54;;;;;;;6.20;5.60;;;25.80;62.00;;;-142.21;80.04;112049.66;5052232;28;20225;-72
2022/08/17 07:33:25;;;;;;;6.90;6.27;;;25.90;62.50;;;-142.21;79.79;112049.66;5052304;28;20190;-73
2022/08/17 07:35:56;;;;;;;6.67;5.40;;;25.90;62.10;;;-142.21;78.22;112049.66;5051462;28;20574;-73
2022/08/17 07:38:27;;;;;;;5.77;5.27;;;26.00;61.70;;;-142.21;77.98;112049.66;5051729;28;20206;-74
2022/08/17 07:41:06;;;;;;;7.83;6.00;;;26.00;61.50;;;-142.21;79.48;112049.66;5051699;28;20251;-73
2022/08/17 07:43:36;;;;;;;6.13;5.63;;;26.10;62.20;;;-142.21;78.53;112049.66;5051821;28;20206;-72
2022/08/17 07:49:36;;;;;;;5.70;5.10;;;26.20;62.10;;;-142.21;78.10;112049.66;5052427;28;20617;-72
2022/08/17 07:52:10;;;;;;;5.90;5.30;;;26.30;62.20;;;-142.21;76.61;112049.66;5040323;28;20297;-72
2022/08/17 07:54:40;;;;;;;7.23;5.17;;;26.30;61.00;;;-142.21;74.89;112049.66;5031438;28;20197;-73
2022/08/17 07:57:31;;;;;;;6.03;5.33;;;26.40;60.20;;;-142.21;72.96;112049.66;5032342;28;20197;-73
2022/08/17 08:00:22;;;;;;;13.40;5.73;;;26.40;59.50;;;-142.21;72.44;112049.66;5047472;28;20196;-72
2022/08/17 08:03:20;;;;;;;5.90;5.30;;;26.40;59.20;;;-142.21;71.71;112049.66;5054653;28;20197;-75
2022/08/17 08:05:56;;;;;;;7.20;5.23;;;26.40;58.90;;;-142.21;72.34;112049.66;5055779;28;20225;-72
2022/08/17 08:08:37;;;;;;;5.50;5.00;;;26.50;59.20;;;-142.21;71.61;112049.66;5049586;28;20222;-71
2022/08/17 08:11:10;;;;;;;7.43;5.13;;;26.50;58.90;;;-142.21;72.58;112049.66;5036329;28;20244;-73
2022/08/17 08:13:43;;;;;;;5.80;5.30;;;26.50;59.30;;;-142.21;73.29;112049.66;5053993;28;20243;-73
2022/08/17 08:16:25;;;;;;;9.67;5.77;;;26.50;59.50;;;-142.21;73.33;112049.66;5056416;28;20190;-73
2022/08/17 08:18:57;;;;;;;5.27;4.77;;;26.40;59.60;;;-142.21;73.16;112049.66;5055249;28;20237;-73
2022/08/17 08:21:49;;;;;;;6.50;5.40;;;26.40;59.70;;;-142.21;75.81;112049.66;5055265;28;20285;-72
2022/08/17 08:24:52;;;;;;;5.70;4.90;;;26.40;60.50;;;-142.21;72.61;112049.66;5052969;28;20257;-72
2022/08/17 08:27:37;;;;;;;5.77;5.20;;;26.40;59.50;;;-142.21;71.86;112049.66;5049196;28;20189;-73
2022/08/17 08:30:13;;;;;;;6.07;4.90;;;26.40;59.30;;;-142.21;70.94;112049.66;5055936;28;20182;-73
2022/08/17 08:33:19;;;;;;;5.77;5.07;;;26.40;59.10;;;-142.21;70.86;112049.66;5055597;28;20189;-73
2022/08/17 08:35:53;;;;;;;5.60;5.10;;;26.40;59.00;;;-142.21;69.74;112049.66;5049538;28;20205;-73
2022/08/17 08:38:36;;;;;;;5.07;4.67;;;26.40;58.50;;;-142.21;70.26;112049.66;5053714;28;20236;-74
2022/08/17 08:41:30;;;;;;;7.10;4.83;;;26.40;58.80;;;-142.21;74.26;112049.66;5055140;28;20205;-73
2022/08/17 08:44:19;;;;;;;5.60;5.10;;;26.50;59.90;;;-142.21;79.67;112049.66;5050412;28;20233;-73
2022/08/17 08:46:59;;;;;;;5.57;5.07;;;26.50;62.00;;;-142.21;78.20;112049.66;5034948;28;20203;-73
2022/08/17 08:50:13;;;;;;;6.27;5.20;;;26.40;61.30;;;-142.21;77.85;112049.66;5019826;28;20234;-71
2022/08/17 08:52:59;;;;;;;5.83;5.30;;;26.50;61.60;;;-142.21;77.33;112049.66;5051576;28;20190;-72
2022/08/17 08:55:49;;;;;;;5.20;4.70;;;26.40;61.30;;;-142.21;75.39;112049.66;5054273;28;20313;-73
2022/08/17 08:58:28;;;;;;;5.07;4.40;;;26.30;60.60;;;-142.21;75.32;112049.66;5033586;28;20209;-73
2022/08/17 09:01:03;;;;;;;5.80;4.97;;;26.20;60.60;;;-142.21;76.27;112049.66;5007542;28;20202;-71
2022/08/17 09:03:55;;;;;;;6.37;4.87;;;26.10;61.40;;;-142.21;73.60;112049.66;5051029;28;20205;-72
2022/08/17 09:06:38;;;;;;;5.30;4.40;;;26.10;61.10;;;-142.21;70.42;112049.66;5050167;28;20201;-72
2022/08/17 09:09:24;;;;;;;4.73;4.20;;;26.00;59.80;;;-142.21;67.98;112049.66;5052008;28;20706;-73
2022/08/17 09:12:08;;;;;;;4.80;4.30;;;26.10;59.20;;;-142.21;65.23;112049.66;5037528;28;20202;-72
2022/08/17 09:14:45;;;;;;;4.70;4.30;;;26.20;58.10;;;-142.21;63.60;112049.66;5052141;28;20229;-72
2022/08/17 09:17:19;;;;;;;5.17;3.90;;;26.30;57.70;;;-142.21;63.52;112049.66;5042490;28;20202;-72
2022/08/17 09:19:56;;;;;;;4.30;3.90;;;26.40;57.60;;;-142.21;63.02;112049.66;5054490;28;20510;-72
2022/08/17 09:22:33;;;;;;;5.83;4.17;;;26.50;57.40;;;-142.21;61.44;112049.66;5054359;28;20193;-73
2022/08/17 09:25:10;;;;;;;4.33;3.93;;;26.60;56.80;;;-142.21;60.42;112049.66;5054563;28;20225;-73
2022/08/17 09:27:53;;;;;;;4.63;3.87;;;26.60;56.50;;;-142.21;59.53;112049.66;5050526;28;20205;-73
2022/08/17 09:30:23;;;;;;;4.67;4.23;;;26.70;55.90;;;-142.21;58.78;112049.66;5052403;28;20197;-73
2022/08/17 09:32:59;;;;;;;4.20;3.80;;;26.70;56.00;;;-142.21;60.06;112049.66;5046347;28;20285;-70
2022/08/17 09:35:34;;;;;;;3.87;3.57;;;26.70;56.50;;;-142.21;60.40;112049.66;5051655;28;20293;-71
2022/08/17 09:38:21;;;;;;;4.43;4.00;;;26.90;56.40;;;-142.21;58.79;112049.66;5031518;28;20599;-72
2022/08/17 09:40:59;;;;;;;4.00;3.70;;;26.90;55.60;;;-142.21;58.10;112049.66;5052850;28;20201;-72
2022/08/17 09:43:38;;;;;;;4.63;3.47;;;26.90;55.70;;;-142.21;56.50;112049.66;5045814;28;20249;-73
2022/08/17 09:46:23;;;;;;;4.13;3.73;;;27.00;55.00;;;-142.21;57.36;112049.66;5048588;28;20198;-73
2022/08/17 09:48:57;;;;;;;5.90;3.87;;;27.10;55.00;;;-142.21;60.39;112049.66;5051978;28;20213;-73
2022/08/17 09:51:32;;;;;;;5.10;4.23;;;27.10;55.60;;;-142.21;66.67;112049.66;5052597;28;20214;-72
2022/08/17 09:54:00;;;;;;;5.20;4.80;;;27.10;57.20;;;-142.21;70.33;112049.66;5051481;28;20255;-73
2022/08/17 09:56:44;;;;;;;8.00;5.53;;;26.90;59.10;;;-142.21;73.41;112049.66;5050345;28;20241;-70
2022/08/17 09:59:40;;;;;;;7.10;6.40;;;26.80;59.90;;;-142.21;79.10;112049.66;5050277;28;20548;-72
2022/08/17 10:02:33;;;;;;;7.27;6.57;;;26.30;62.60;;;-142.21;83.11;112049.66;5040859;28;20202;-71
2022/08/17 10:05:07;;;;;;;7.27;6.67;;;25.60;65.80;;;-142.21;83.68;112049.66;5044872;28;20234;-71
2022/08/17 10:07:45;;;;;;;7.17;6.57;;;25.30;65.60;;;-142.21;84.12;112049.66;5018479;28;20206;-72
2022/08/17 10:10:23;;;;;;;8.57;6.70;;;25.30;66.00;;;-142.21;84.04;112049.66;5046390;28;20214;-72
2022/08/17 10:13:01;;;;;;;8.20;7.40;;;25.40;65.90;;;-142.21;84.29;112049.66;5043320;28;20296;-71
2022/08/17 10:15:47;;;;;;;10.63;6.80;;;25.40;66.10;;;-142.21;84.04;112049.66;5048233;28;20808;-70
2022/08/17 10:18:44;;;;;;;7.57;6.97;;;25.40;66.00;;;-142.21;84.07;112049.66;5044585;28;20206;-71
2022/08/17 10:27:16;;;;;;;7.27;6.43;;;25.70;65.50;;;-142.21;81.60;112049.66;5037800;28;20209;-72
2022/08/17 10:29:50;;;;;;;6.70;5.93;;;25.80;64.80;;;-142.21;80.35;112049.66;5047673;28;20306;-72
2022/08/17 10:32:31;;;;;;;6.33;5.80;;;26.00;64.20;;;-142.21;78.98;112049.66;5044849;28;21177;-71
2022/08/17 10:35:32;;;;;;;7.57;6.23;;;26.20;63.60;;;-142.21;77.96;112049.66;5045984;28;20216;-72
2022/08/17 10:38:37;;;;;;;6.23;5.67;;;26.40;63.40;;;-142.21;75.53;112049.66;5046493;28;20555;-72
2022/08/17 10:41:22;;;;;;;5.67;5.13;;;26.50;62.20;;;-142.21;74.28;112049.66;5041255;28;20209;-71
2022/08/17 10:44:02;;;;;;;6.03;5.53;;;26.60;61.80;;;-142.21;72.58;112049.66;5051428;28;20217;-71
2022/08/17 10:46:56;;;;;;;6.23;5.63;;;26.60;61.00;;;-142.21;73.12;112049.66;5050714;28;20634;-71
2022/08/17 10:49:31;;;;;;;6.87;6.27;;;26.50;61.10;;;-142.21;74.46;112049.66;5051135;28;20248;-72
2022/08/17 10:52:03;;;;;;;6.47;5.60;;;26.50;61.60;;;-142.21;74.75;112049.66;5046032;28;20213;-72
2022/08/17 10:55:06;;;;;;;6.13;5.53;;;26.50;61.90;;;-142.21;74.90;112049.66;5046256;28;20240;-70
2022/08/17 10:57:42;;;;;;;8.47;6.30;;;26.60;62.20;;;-142.21;76.12;112049.66;5051936;28;20203;-72